Time;durP1;ratioP1;P1;durP2;ratioP2;P2;SDS_P1;SDS_P2;PMS_P1;PMS_P2;Temp;Humidity;BMP_temperature;BMP_pressure;BME280_temperature;BME280_humidity;BME280_pressure;Samples;Min_cycle;Max_cycle;Signal;HPM_P1;HPM_P2
2023/07/05 00:00:15;;;;;;;8.30;8.10;;;;;;;-141.02;100.00;83512.63;5134888;27;20239;-54
2023/07/05 00:02:42;;;;;;;7.80;7.60;;;;;;;-141.02;100.00;86249.22;5134834;27;20279;-65
2023/07/05 00:05:09;;;;;;;6.93;6.72;;;;;;;-141.02;100.00;89237.03;5135043;27;20264;-66
2023/07/05 00:07:36;;;;;;;6.60;6.40;;;;;;;-141.02;100.00;91230.38;5134767;27;20192;-63
2023/07/05 00:10:03;;;;;;;7.90;7.70;;;;;;;-141.02;100.00;90731.94;5134631;27;20199;-66
2023/07/05 00:12:31;;;;;;;8.20;8.00;;;;;;;-141.02;100.00;89486.16;5134593;27;20232;-54
2023/07/05 00:14:58;;;;;;;9.00;8.70;;;;;;;-141.02;100.00;88489.84;5134892;27;20199;-57
2023/07/05 00:17:25;;;;;;;9.38;9.07;;;;;;;-141.02;100.00;87493.84;5134862;27;20291;-56
2023/07/05 00:19:52;;;;;;;9.90;9.60;;;;;;;-141.02;100.00;86747.00;5134520;27;20279;-64
2023/07/05 00:22:19;;;;;;;9.90;9.60;;;;;;;-141.02;100.00;86498.09;5134654;27;20189;-61
2023/07/05 00:24:46;;;;;;;10.40;10.10;;;;;;;-141.02;100.00;86249.22;5134733;27;20254;-59
2023/07/05 00:27:13;;;;;;;10.25;9.95;;;;;;;-141.02;100.00;86498.09;5135125;27;20196;-61
2023/07/05 00:30:19;;;;;;;10.32;10.02;;;;;;;-141.02;100.00;86249.22;5134312;27;20288;-64
2023/07/05 00:32:45;;;;;;;10.50;10.20;;;;;;;-141.02;100.00;86000.34;5134484;27;20263;-65
2023/07/05 00:35:12;;;;;;;10.15;9.85;;;;;;;-141.02;100.00;85502.66;5134490;27;20208;-54
2023/07/05 00:37:40;;;;;;;10.10;9.80;;;;;;;-141.02;100.00;86249.22;5134153;27;20195;-64
2023/07/05 00:40:08;;;;;;;9.40;9.10;;;;;;;-141.02;100.00;88240.81;5134388;27;20196;-56
2023/07/05 00:42:38;;;;;;;8.70;8.50;;;;;;;-141.02;100.00;89237.03;5134314;27;20196;-57
2023/07/05 00:45:50;;;;;;;9.13;8.82;;;;;;;-141.02;100.00;88987.97;5134322;27;20242;-55
2023/07/05 00:48:18;;;;;;;8.82;8.63;;;;;;;-141.02;100.00;89486.16;5133992;27;20189;-64
2023/07/05 00:51:26;;;;;;;9.27;8.98;;;;;;;-141.02;100.00;89237.03;5134198;27;20289;-61
2023/07/05 00:53:57;;;;;;;9.70;9.40;;;;;;;-141.02;100.00;88738.88;5133880;27;20241;-57
2023/07/05 01:00:02;;;;;;;9.60;9.30;;;;;;;-141.02;100.00;88240.81;5129248;27;20662;-61
2023/07/05 01:09:21;;;;;;;9.70;9.40;;;;;;;-141.02;100.00;88987.97;5133640;27;20223;-55
2023/07/05 01:11:56;;;;;;;9.50;9.20;;;;;;;-141.02;100.00;89735.28;5133511;27;20265;-65
2023/07/05 01:14:30;;;;;;;9.10;8.80;;;;;;;-141.02;100.00;90731.94;5133564;27;20708;-65
2023/07/05 01:17:10;;;;;;;9.20;8.90;;;;;;;-141.02;100.00;90981.13;5133433;27;20267;-57
2023/07/05 01:20:09;;;;;;;9.50;9.20;;;;;;;-141.02;100.00;91728.88;5133470;27;20267;-55
2023/07/05 01:23:13;;;;;;;9.40;9.10;;;;;;;-141.02;100.00;91978.16;5133389;27;20689;-64
2023/07/05 01:25:58;;;;;;;8.70;8.50;;;;;;;-141.02;100.00;92227.47;5133361;27;20657;-59
2023/07/05 01:32:14;;;;;;;9.40;9.10;;;;;;;-141.02;100.00;90233.56;5133275;27;20200;-66
2023/07/05 01:34:47;;;;;;;9.50;9.20;;;;;;;-141.02;100.00;89735.28;5133457;27;20227;-66
2023/07/05 01:37:27;;;;;;;9.50;9.20;;;;;;;-141.02;100.00;89486.16;5133143;27;20249;-67
2023/07/05 01:39:54;;;;;;;9.90;9.60;;;;;;;-141.02;100.00;88489.84;5133185;27;20276;-57
2023/07/05 01:42:26;;;;;;;9.63;9.32;;;;;;;-141.02;100.00;87991.81;5133382;27;20192;-62
2023/07/05 01:44:54;;;;;;;10.05;9.75;;;;;;;-141.02;100.00;87991.81;5133040;27;20608;-60
2023/07/05 01:47:33;;;;;;;9.82;9.52;;;;;;;-141.02;100.00;89237.03;5133029;27;20221;-67
2023/07/05 01:50:08;;;;;;;9.30;9.00;;;;;;;-141.02;100.00;89735.28;5133326;27;20604;-58
2023/07/05 01:52:43;;;;;;;8.60;8.40;;;;;;;-141.02;100.00;90981.13;5132842;27;20273;-64
2023/07/05 01:55:16;;;;;;;7.60;7.40;;;;;;;-141.02;100.00;91978.16;5132951;27;20267;-57
2023/07/05 01:57:49;;;;;;;7.53;7.32;;;;;;;-141.02;100.00;93723.63;5133137;27;20220;-64
2023/07/05 02:00:19;;;;;;;6.68;6.47;;;;;;;-141.02;100.00;95220.47;5132987;27;20277;-68
2023/07/05 02:02:51;;;;;;;6.30;6.20;;;;;;;-141.02;100.00;96717.94;5132790;27;20571;-62
2023/07/05 02:05:21;;;;;;;5.50;5.40;;;;;;;-141.02;100.00;98216.03;5131633;27;20672;-67
2023/07/05 02:15:21;;;;;;;5.20;5.10;;;;;;;-141.02;100.00;102464.22;5132785;28;20199;-67
2023/07/05 02:18:29;;;;;;;5.63;5.53;;;;;;;-141.02;100.00;101464.19;5133114;27;20196;-68
2023/07/05 02:20:57;;;;;;;6.10;6.00;;;;;;;-141.02;100.00;100714.34;5133605;27;20192;-60
2023/07/05 02:23:24;;;;;;;6.53;6.32;;;;;;;-141.02;100.00;100464.44;5132708;27;20292;-64
2023/07/05 02:25:52;;;;;;;6.57;6.38;;;;;;;-141.02;100.00;100214.53;5132982;27;20199;-61
2023/07/05 02:28:19;;;;;;;7.00;6.80;;;;;;;-141.02;100.00;99714.81;5132526;27;20617;-61
2023/07/05 02:34:21;;;;;;;7.40;7.20;;;;;;;-141.02;100.00;99964.66;5136520;27;20187;-64
2023/07/05 02:37:22;;;;;;;6.70;6.50;;;;;;;-141.02;100.00;101464.19;5136562;27;20680;-64
2023/07/05 02:43:10;;;;;;;5.80;5.70;;;;;;;-141.02;100.00;103714.66;5136528;27;20172;-62
2023/07/05 02:45:37;;;;;;;7.43;7.22;;;;;;;-141.02;100.00;101964.16;5136372;27;20193;-67
2023/07/05 02:51:27;;;;;;;10.40;10.10;;;;;;;-141.02;100.00;95719.53;5136352;27;20552;-67
2023/07/05 02:57:17;;;;;;;11.00;10.70;;;;;;;-141.02;100.00;94222.50;5136290;27;20176;-60
2023/07/05 03:03:06;;;;;;;11.43;11.07;;;;;;;-141.02;100.00;93224.84;5136144;27;20268;-57
2023/07/05 03:05:33;;;;;;;11.32;10.93;;;;;;;-141.02;100.00;93224.84;5136017;27;20193;-62
2023/07/05 03:08:00;;;;;;;11.60;11.20;;;;;;;-141.02;100.00;93224.84;5135821;27;20189;-56
2023/07/05 03:10:44;;;;;;;12.30;11.90;;;;;;;-141.02;100.00;93723.63;5136160;27;20669;-56
2023/07/05 03:23:17;;;;;;;10.30;10.00;;;;;;;-141.02;100.00;95719.53;5135684;27;20212;-68
2023/07/05 03:25:55;;;;;;;10.13;9.82;;;;;;;-141.02;100.00;96468.31;5135524;27;20203;-67
2023/07/05 03:28:22;;;;;;;10.38;10.07;;;;;;;-141.02;100.00;96468.31;5135542;27;20195;-68
2023/07/05 03:31:41;;;;;;;10.70;10.40;;;;;;;-141.02;100.00;95719.53;5135486;27;20188;-64
2023/07/05 03:34:08;;;;;;;11.40;11.00;;;;;;;-141.02;100.00;94970.94;5135315;27;20235;-61
2023/07/05 03:36:35;;;;;;;11.43;11.02;;;;;;;-141.02;100.00;94721.44;5135321;27;20661;-67
2023/07/05 03:39:03;;;;;;;11.70;11.30;;;;;;;-141.02;100.00;94970.94;5135320;27;20650;-68
2023/07/05 03:41:31;;;;;;;10.30;10.00;;;;;;;-141.02;100.00;96967.56;5134835;27;20654;-69
2023/07/05 03:44:00;;;;;;;8.88;8.68;;;;;;;-141.02;100.00;98216.03;5135214;27;20192;-71
2023/07/05 03:46:28;;;;;;;8.38;8.18;;;;;;;-141.02;100.00;99464.97;5135068;27;20629;-58
2023/07/05 03:48:58;;;;;;;8.60;8.40;;;;;;;-141.02;100.00;99714.81;5135388;27;20189;-63
2023/07/05 03:52:18;;;;;;;8.27;8.07;;;;;;;-141.02;100.00;98965.34;5135419;27;20581;-68
2023/07/05 03:55:01;;;;;;;10.02;9.73;;;;;;;-141.02;100.00;97716.59;5135019;27;20192;-63
2023/07/05 03:57:28;;;;;;;11.35;10.95;;;;;;;-141.02;100.00;96717.94;5135306;27;20250;-59
2023/07/05 03:59:55;;;;;;;12.35;11.93;;;;;;;-141.02;100.00;95220.47;5134690;27;20319;-66
2023/07/05 04:02:22;;;;;;;13.73;13.13;;;;;;;-141.02;100.00;93224.84;5135189;27;20196;-66
2023/07/05 04:04:49;;;;;;;14.85;14.15;;;;;;;-141.02;100.00;92476.78;5135075;27;20261;-67
2023/07/05 04:07:18;;;;;;;15.90;15.10;;;;;;;-141.02;100.00;90482.72;5134730;27;20198;-59
2023/07/05 04:09:45;;;;;;;16.05;15.15;;;;;;;-141.02;100.00;87742.81;5134770;27;20239;-68
2023/07/05 04:12:14;;;;;;;16.23;15.23;;;;;;;-141.02;100.00;85751.50;5134586;27;20227;-66
2023/07/05 04:14:41;;;;;;;16.50;15.50;;;;;;;-141.02;100.00;83512.63;5134615;27;20284;-64
2023/07/05 04:20:56;;;;;;;17.20;16.20;;;;;;;-141.02;100.00;82766.69;5134521;27;20200;-67
2023/07/05 04:23:24;;;;;;;17.17;16.08;;;;;;;-141.02;100.00;82518.06;5134788;27;20196;-67
2023/07/05 04:26:32;;;;;;;17.67;16.48;;;;;;;-141.02;100.00;82020.88;5134387;27;20575;-68
2023/07/05 04:29:01;;;;;;;18.52;17.33;;;;;;;-141.02;94.62;80529.75;5134312;27;20658;-58
2023/07/05 04:31:30;;;;;;;18.10;16.80;;;;;;;-141.02;94.33;79536.03;5134271;27;20188;-67
2023/07/05 04:33:58;;;;;;;18.77;17.38;;;;;;;-141.02;93.89;79287.66;5134216;27;20224;-60
2023/07/05 04:36:27;;;;;;;19.05;17.75;;;;;;;-141.02;90.89;78294.28;5134489;27;20304;-57
2023/07/05 04:45:39;;;;;;;18.02;16.92;;;;;;;-141.02;93.59;75564.03;5134049;27;20296;-57
2023/07/05 04:48:06;;;;;;;17.67;16.38;;;;;;;-141.02;91.21;75812.16;5134224;27;20219;-68
2023/07/05 04:50:33;;;;;;;17.42;16.23;;;;;;;-141.02;89.65;75812.16;5133910;27;20637;-61
2023/07/05 04:53:04;;;;;;;17.73;16.42;;;;;;;-141.02;87.31;76308.44;5133071;27;20709;-68
2023/07/05 04:55:32;;;;;;;18.42;17.10;;;;;;;-141.02;84.01;76804.81;5133918;27;20191;-64
2023/07/05 04:57:59;;;;;;;18.33;16.92;;;;;;;-141.02;80.40;77301.22;5133904;27;20188;-65
2023/07/05 05:00:26;;;;;;;18.75;17.25;;;;;;;-141.02;80.88;75812.16;5133818;27;20576;-68
2023/07/05 05:02:54;;;;;;;16.65;15.65;;;;;;;-141.02;93.07;74819.81;5133964;27;20196;-65
2023/07/05 05:05:21;;;;;;;16.80;15.70;;;;;;;-141.02;96.74;75315.94;5133957;27;20229;-67
2023/07/05 05:07:48;;;;;;;15.30;14.50;;;;;;;-141.02;100.00;75315.94;5133576;27;20192;-60
2023/07/05 05:10:15;;;;;;;14.35;13.55;;;;;;;-141.02;100.00;76804.81;5133939;27;20245;-63
2023/07/05 05:12:42;;;;;;;14.10;13.50;;;;;;;-141.02;100.00;77053.00;5133477;27;20693;-67
2023/07/05 05:15:10;;;;;;;14.00;13.30;;;;;;;-141.02;100.00;77549.47;5133827;27;20192;-59
2023/07/05 05:17:37;;;;;;;13.55;12.95;;;;;;;-141.02;100.00;77549.47;5133757;27;20661;-67
2023/07/05 05:20:07;;;;;;;13.25;12.75;;;;;;;-141.02;100.00;80032.88;5133388;27;20544;-58
2023/07/05 05:22:34;;;;;;;13.85;13.25;;;;;;;-141.02;100.00;79536.03;5133457;27;20635;-64
2023/07/05 05:25:01;;;;;;;14.88;14.18;;;;;;;-141.02;100.00;78790.94;5133381;27;20574;-63
2023/07/05 05:27:28;;;;;;;15.70;14.80;;;;;;;-141.02;100.00;77301.22;5133296;27;20196;-65
2023/07/05 05:29:55;;;;;;;15.90;14.90;;;;;;;-141.02;100.00;76556.59;5133577;27;20662;-58
2023/07/05 05:32:22;;;;;;;16.30;15.20;;;;;;;-141.02;97.88;75315.94;5133491;27;20228;-62
2023/07/05 05:34:48;;;;;;;16.80;15.60;;;;;;;-141.02;95.70;75564.03;5133519;27;20199;-58
2023/07/05 05:37:17;;;;;;;16.77;15.68;;;;;;;-141.02;96.08;75067.88;5133123;27;20197;-66
2023/07/05 05:39:44;;;;;;;16.10;15.10;;;;;;;-141.02;100.00;76308.44;5133500;27;20196;-65
2023/07/05 05:42:11;;;;;;;17.40;16.30;;;;;;;-141.02;100.00;76308.44;5133113;27;20189;-68
2023/07/05 05:44:38;;;;;;;16.73;15.63;;;;;;;-141.02;100.00;76556.59;5133319;27;20223;-67
2023/07/05 05:47:05;;;;;;;16.42;15.32;;;;;;;-141.02;100.00;75564.03;5133006;27;20642;-58
2023/07/05 05:49:32;;;;;;;16.27;15.27;;;;;;;-141.02;100.00;76060.28;5133368;27;20192;-67
2023/07/05 05:51:59;;;;;;;15.93;15.00;;;;;;;-141.02;100.00;75812.16;5133366;27;20193;-67
2023/07/05 05:54:27;;;;;;;16.40;15.40;;;;;;;-141.02;100.00;75812.16;5132909;27;20309;-67
2023/07/05 05:56:54;;;;;;;16.20;15.20;;;;;;;-141.02;100.00;75812.16;5133243;27;20284;-68
2023/07/05 05:59:21;;;;;;;16.23;15.13;;;;;;;-141.02;100.00;76308.44;5132812;27;20270;-64
2023/07/05 06:01:50;;;;;;;16.63;15.43;;;;;;;-141.02;98.68;74571.75;5133205;27;20192;-68
2023/07/05 06:04:17;;;;;;;17.60;16.30;;;;;;;-141.02;97.50;74075.72;5134749;27;20207;-68
2023/07/05 06:06:44;;;;;;;17.23;16.02;;;;;;;-141.02;98.08;73827.72;5137127;27;20279;-68
2023/07/05 06:09:11;;;;;;;17.42;16.15;;;;;;;-141.02;96.20;73331.81;5137064;27;20238;-60
2023/07/05 06:11:39;;;;;;;16.92;15.73;;;;;;;-141.02;100.00;75315.94;5137062;27;20619;-68
2023/07/05 06:14:06;;;;;;;17.48;16.27;;;;;;;-141.02;97.72;73827.72;5137187;27;20234;-68
2023/07/05 06:16:33;;;;;;;18.00;16.73;;;;;;;-141.02;99.82;74571.75;5137297;27;20224;-68
2023/07/05 06:19:00;;;;;;;17.88;16.67;;;;;;;-141.02;100.00;74819.81;5136904;27;20192;-67
2023/07/05 06:21:27;;;;;;;17.30;16.10;;;;;;;-141.02;97.68;73579.75;5136876;27;20198;-67
2023/07/05 06:23:54;;;;;;;17.00;15.80;;;;;;;-141.02;99.40;74571.75;5137157;27;20224;-67
2023/07/05 06:26:21;;;;;;;16.88;15.77;;;;;;;-141.02;97.94;73827.72;5137405;27;20189;-59
2023/07/05 06:28:49;;;;;;;16.98;15.77;;;;;;;-141.02;97.80;73827.72;5136819;27;20670;-59
2023/07/05 06:31:18;;;;;;;17.80;16.50;;;;;;;-141.02;98.46;73331.81;5136616;27;20223;-66
2023/07/05 06:33:45;;;;;;;17.15;16.05;;;;;;;-141.02;97.47;73579.75;5136646;27;20709;-67
2023/07/05 06:36:12;;;;;;;17.75;16.55;;;;;;;-141.02;96.55;73331.81;5136878;27;20223;-65
2023/07/05 06:38:39;;;;;;;17.55;16.35;;;;;;;-141.02;96.26;74323.72;5136825;27;20196;-67
2023/07/05 06:41:06;;;;;;;18.65;17.25;;;;;;;-141.02;94.11;73083.88;5136875;27;20192;-67
2023/07/05 06:43:33;;;;;;;18.33;17.02;;;;;;;-141.02;95.93;73827.72;5136705;27;20280;-68
2023/07/05 06:46:02;;;;;;;18.60;17.20;;;;;;;-141.02;94.86;74075.72;5136742;27;20188;-68
2023/07/05 06:48:29;;;;;;;18.20;16.80;;;;;;;-141.02;94.63;73827.72;5136618;27;20194;-67
2023/07/05 06:50:59;;;;;;;18.30;16.90;;;;;;;-141.02;92.83;73579.75;5136338;27;20197;-66
2023/07/05 06:53:26;;;;;;;18.23;16.83;;;;;;;-141.02;93.33;73579.75;5136254;27;20639;-67
2023/07/05 06:55:53;;;;;;;19.08;17.50;;;;;;;-141.02;94.22;73083.88;5136200;27;20570;-62
2023/07/05 06:58:20;;;;;;;18.30;16.90;;;;;;;-141.02;92.97;73331.81;5136152;27;20315;-67
2023/07/05 07:00:48;;;;;;;18.85;17.35;;;;;;;-141.02;91.64;74819.81;5136456;27;20184;-67
2023/07/05 07:03:17;;;;;;;19.33;17.73;;;;;;;-141.02;88.53;73827.72;5136467;27;20196;-60
2023/07/05 07:05:49;;;;;;;18.58;17.10;;;;;;;-141.02;89.39;73331.81;5135989;27;20654;-67
2023/07/05 07:08:16;;;;;;;18.83;17.33;;;;;;;-141.02;88.83;73827.72;5136302;27;20223;-66
2023/07/05 07:10:43;;;;;;;18.80;17.40;;;;;;;-141.02;90.72;75067.88;5136725;27;20203;-65
2023/07/05 07:13:10;;;;;;;19.25;17.65;;;;;;;-141.02;87.94;74323.72;5136149;27;20192;-64
2023/07/05 07:15:37;;;;;;;19.58;17.98;;;;;;;-141.02;86.11;74075.72;5135081;27;20750;-58
2023/07/05 07:18:04;;;;;;;19.08;17.58;;;;;;;-141.02;88.76;74571.75;5135802;27;20245;-68
2023/07/05 07:20:32;;;;;;;18.90;17.40;;;;;;;-141.02;91.52;75564.03;5136130;27;20245;-66
2023/07/05 07:22:59;;;;;;;19.45;17.85;;;;;;;-141.02;87.09;74323.72;5135769;27;20284;-61
2023/07/05 07:25:26;;;;;;;19.48;17.88;;;;;;;-141.02;86.35;74323.72;5136022;27;20223;-67
2023/07/05 07:27:53;;;;;;;19.05;17.55;;;;;;;-141.02;86.45;75812.16;5135945;27;20316;-67
2023/07/05 07:30:20;;;;;;;19.65;18.05;;;;;;;-141.02;85.13;75067.88;5135949;27;20269;-64
2023/07/05 07:32:48;;;;;;;20.20;18.50;;;;;;;-141.02;82.67;74571.75;5135496;27;20650;-68
2023/07/05 07:35:15;;;;;;;20.58;18.88;;;;;;;-141.02;82.23;74571.75;5135643;27;20314;-65
2023/07/05 07:37:43;;;;;;;20.25;18.55;;;;;;;-141.02;81.37;75067.88;5135468;27;20723;-64
2023/07/05 07:40:11;;;;;;;19.60;18.00;;;;;;;-141.02;83.88;76804.81;5135691;27;20223;-68
2023/07/05 07:42:38;;;;;;;20.65;18.85;;;;;;;-141.02;80.77;76804.81;5135298;27;20689;-58
2023/07/05 07:45:06;;;;;;;20.63;18.83;;;;;;;-141.02;79.16;74819.81;5135575;27;20227;-68
2023/07/05 07:47:33;;;;;;;19.98;18.27;;;;;;;-141.02;80.44;74075.72;5135490;27;20192;-67
2023/07/05 07:50:00;;;;;;;19.60;17.90;;;;;;;-141.02;80.17;74571.75;5135213;27;20675;-61
2023/07/05 07:52:27;;;;;;;19.92;18.23;;;;;;;-141.02;82.06;75067.88;5135182;27;20662;-61
2023/07/05 07:54:56;;;;;;;19.88;18.17;;;;;;;-141.02;81.31;76060.28;5134976;27;20311;-67
2023/07/05 07:57:23;;;;;;;20.05;18.25;;;;;;;-141.02;77.76;74819.81;5135350;27;20192;-64
2023/07/05 07:59:52;;;;;;;20.30;18.50;;;;;;;-141.02;80.68;76308.44;5134986;27;20240;-62
2023/07/05 08:02:19;;;;;;;20.05;18.25;;;;;;;-141.02;77.25;74571.75;5134823;27;20203;-68
2023/07/05 08:04:47;;;;;;;20.38;18.58;;;;;;;-141.02;77.32;74571.75;5134807;27;20196;-64
2023/07/05 08:07:15;;;;;;;20.15;18.40;;;;;;;-141.02;76.72;74819.81;5134779;27;20199;-58
2023/07/05 08:09:42;;;;;;;19.67;17.98;;;;;;;-141.02;80.94;76804.81;5135208;27;20635;-58
2023/07/05 08:12:11;;;;;;;19.92;18.23;;;;;;;-141.02;76.51;74323.72;5135054;27;20196;-66
2023/07/05 08:14:38;;;;;;;20.35;18.55;;;;;;;-141.02;77.77;74571.75;5134833;27;20307;-67
2023/07/05 08:17:05;;;;;;;20.70;19.00;;;;;;;-141.02;80.34;74075.72;5134725;27;20697;-68
2023/07/05 08:19:32;;;;;;;19.92;18.23;;;;;;;-141.02;78.37;72835.97;5135394;27;20199;-67
2023/07/05 08:21:59;;;;;;;19.70;18.10;;;;;;;-141.02;79.53;75564.03;5134435;27;20202;-65
2023/07/05 08:24:26;;;;;;;20.27;18.55;;;;;;;-141.02;74.68;74571.75;5134738;27;20268;-66
2023/07/05 08:26:54;;;;;;;19.77;18.08;;;;;;;-141.02;75.18;75564.03;5134344;27;20192;-67
2023/07/05 08:29:22;;;;;;;20.40;18.60;;;;;;;-141.02;77.06;75315.94;5133818;27;20753;-67
2023/07/05 08:31:50;;;;;;;20.23;18.52;;;;;;;-141.02;76.10;73827.72;5134373;27;20189;-64
2023/07/05 08:34:17;;;;;;;20.48;18.73;;;;;;;-141.02;74.33;74571.75;5134123;27;20278;-58
2023/07/05 08:36:46;;;;;;;20.65;18.85;;;;;;;-141.02;73.67;74323.72;5134266;27;20672;-58
2023/07/05 08:39:13;;;;;;;21.35;19.45;;;;;;;-141.02;73.97;74819.81;5134516;27;20200;-60
2023/07/05 08:41:52;;;;;;;21.02;19.23;;;;;;;-141.02;74.62;75564.03;5134533;27;20650;-64
2023/07/05 08:44:34;;;;;;;21.25;19.35;;;;;;;-141.02;72.84;74075.72;5134409;27;20187;-62
2023/07/05 08:47:04;;;;;;;21.23;19.38;;;;;;;-141.02;73.55;74571.75;5134248;27;20605;-60
2023/07/05 08:49:36;;;;;;;20.58;18.77;;;;;;;-141.02;73.91;76308.44;5134381;27;20263;-66
2023/07/05 08:52:04;;;;;;;20.67;18.88;;;;;;;-141.02;73.06;74819.81;5134296;27;20188;-65
2023/07/05 08:54:35;;;;;;;21.00;19.20;;;;;;;-141.02;75.28;76308.44;5134026;27;20266;-64
2023/07/05 08:57:05;;;;;;;20.75;18.95;;;;;;;-141.02;74.85;77053.00;5134196;27;20188;-65
2023/07/05 08:59:42;;;;;;;21.10;19.20;;;;;;;-141.02;72.26;76308.44;5133683;27;20220;-69
2023/07/05 09:02:11;;;;;;;21.65;19.75;;;;;;;-141.02;69.83;75564.03;5133786;27;20605;-68
2023/07/05 09:04:39;;;;;;;21.48;19.58;;;;;;;-141.02;69.52;77301.22;5133656;27;20197;-66
2023/07/05 09:07:14;;;;;;;21.60;19.70;;;;;;;-141.02;67.32;75812.16;5133917;27;20193;-64
2023/07/05 09:09:52;;;;;;;22.40;20.40;;;;;;;-141.02;65.71;74075.72;5133920;27;20192;-63
2023/07/05 09:12:25;;;;;;;22.35;20.35;;;;;;;-141.02;67.84;74075.72;5133888;27;20191;-66
2023/07/05 09:15:10;;;;;;;22.67;20.67;;;;;;;-141.02;67.62;72092.31;5133731;27;20212;-69
2023/07/05 09:17:49;;;;;;;21.85;19.85;;;;;;;-141.02;69.68;72092.31;5133482;27;20192;-68
2023/07/05 09:20:29;;;;;;;23.65;21.55;;;;;;;-141.02;67.87;71348.81;5133490;27;20193;-67
2023/07/05 09:23:00;;;;;;;21.77;19.80;;;;;;;-141.02;70.19;72835.97;5133750;27;20215;-65
2023/07/05 09:25:31;;;;;;;21.45;19.48;;;;;;;-141.02;69.83;73331.81;5133655;27;20249;-67
2023/07/05 09:28:06;;;;;;;22.60;20.50;;;;;;;-141.02;69.24;70605.50;5133362;27;20199;-68
2023/07/05 09:30:36;;;;;;;22.40;20.35;;;;;;;-141.02;67.49;69119.34;5133487;27;20219;-64
2023/07/05 09:33:10;;;;;;;22.00;20.00;;;;;;;-141.02;69.14;69119.34;5133478;27;20217;-68
2023/07/05 09:35:40;;;;;;;21.45;19.55;;;;;;;-141.02;76.33;66148.94;5133106;27;20216;-70
2023/07/05 09:38:14;;;;;;;20.75;18.95;;;;;;;-141.02;77.49;66396.38;5132986;27;20184;-65
2023/07/05 09:40:46;;;;;;;21.55;19.55;;;;;;;-141.02;70.48;62686.75;5132834;27;20202;-59
2023/07/05 09:43:19;;;;;;;22.08;20.08;;;;;;;-141.02;75.09;61698.22;5133061;27;20185;-60
2023/07/05 09:45:48;;;;;;;21.67;19.77;;;;;;;-141.02;80.47;60462.94;5133276;27;20650;-67
2023/07/05 09:48:18;;;;;;;21.10;19.30;;;;;;;-141.02;80.98;57436.44;5133016;27;20228;-70
2023/07/05 09:50:49;;;;;;;32.00;29.95;;;;;;;-141.02;100.00;62439.59;5133199;27;20275;-64
2023/07/05 09:53:33;;;;;;;28.88;27.17;;;;;;;-141.02;100.00;64912.06;5132983;27;20610;-64
2023/07/05 09:56:04;;;;;;;23.50;22.20;;;;;;;-141.02;100.00;62439.59;5132794;27;20216;-66
2023/07/05 09:58:33;;;;;;;20.35;19.27;;;;;;;-141.02;100.00;62192.44;5133162;27;20235;-66
2023/07/05 10:01:05;;;;;;;17.92;16.73;;;;;;;-141.02;100.00;62439.59;5133201;27;20286;-66
2023/07/05 10:03:37;;;;;;;17.60;16.30;;;;;;;-141.02;98.55;62933.94;5132884;27;20181;-67
2023/07/05 10:06:10;;;;;;;18.00;16.60;;;;;;;-141.02;93.71;60462.94;5132854;27;20249;-63
2023/07/05 10:08:45;;;;;;;18.60;17.10;;;;;;;-141.02;93.03;59228.09;5132891;27;20227;-64
2023/07/05 10:11:24;;;;;;;18.63;17.13;;;;;;;-141.02;94.61;60462.94;5133151;27;20196;-61
2023/07/05 10:14:12;;;;;;;18.55;17.05;;;;;;;-141.02;90.83;59475.03;5132710;27;20192;-68
2023/07/05 10:16:49;;;;;;;19.55;17.85;;;;;;;-141.02;85.45;57542.50;5133082;27;20185;-61
2023/07/05 10:19:24;;;;;;;19.90;18.10;;;;;;;-141.02;83.59;58344.69;5133134;27;20637;-59
2023/07/05 10:21:54;;;;;;;20.27;18.48;;;;;;;-141.02;85.31;60215.94;5132685;27;20231;-66
2023/07/05 10:24:22;;;;;;;19.05;17.45;;;;;;;-141.02;91.38;63675.59;5132663;27;20197;-60
2023/07/05 10:27:00;;;;;;;18.48;16.98;;;;;;;-141.02;94.43;66148.94;5132920;27;20204;-69
2023/07/05 10:29:29;;;;;;;17.63;16.33;;;;;;;-141.02;96.83;68376.50;5132722;27;20272;-69
2023/07/05 10:32:00;;;;;;;17.77;16.48;;;;;;;-141.02;99.07;70853.25;5132949;27;20238;-69
2023/07/05 10:34:27;;;;;;;18.08;16.67;;;;;;;-141.02;95.44;71596.63;5132524;27;20209;-58
2023/07/05 10:36:55;;;;;;;18.35;16.90;;;;;;;-141.02;95.28;71844.47;5132524;27;20579;-67
2023/07/05 10:39:26;;;;;;;19.23;17.63;;;;;;;-141.02;93.72;71348.81;5132483;27;20248;-69
2023/07/05 10:41:56;;;;;;;18.60;17.20;;;;;;;-141.02;96.05;72588.06;5132484;27;20203;-70
2023/07/05 10:44:29;;;;;;;19.13;17.63;;;;;;;-141.02;94.20;72340.16;5132815;27;20195;-68
2023/07/05 10:46:58;;;;;;;19.40;17.90;;;;;;;-141.02;94.13;73331.81;5132983;27;20199;-69
2023/07/05 10:49:29;;;;;;;19.13;17.63;;;;;;;-141.02;93.09;72835.97;5132384;27;20195;-70
2023/07/05 10:52:00;;;;;;;18.60;17.10;;;;;;;-141.02;92.06;72835.97;5135179;27;20264;-70
2023/07/05 10:54:34;;;;;;;19.17;17.63;;;;;;;-141.02;90.08;72092.31;5136149;27;20678;-70
2023/07/05 10:57:12;;;;;;;19.27;17.67;;;;;;;-141.02;89.51;72340.16;5136182;27;20556;-70
2023/07/05 10:59:44;;;;;;;19.00;17.40;;;;;;;-141.02;88.21;72588.06;5135975;27;20236;-69
2023/07/05 11:02:28;;;;;;;20.00;18.30;;;;;;;-141.02;86.80;71844.47;5136202;27;20195;-69
2023/07/05 11:04:56;;;;;;;20.10;18.40;;;;;;;-141.02;86.11;72588.06;5136336;27;20703;-66
2023/07/05 11:07:24;;;;;;;20.67;18.88;;;;;;;-141.02;84.02;72588.06;5135983;27;20199;-70
2023/07/05 11:09:51;;;;;;;20.73;18.88;;;;;;;-141.02;81.81;72340.16;5135891;27;20283;-65
2023/07/05 11:12:23;;;;;;;20.52;18.73;;;;;;;-141.02;83.67;71844.47;5135881;27;20232;-59
2023/07/05 11:14:51;;;;;;;20.88;18.98;;;;;;;-141.02;80.20;71101.03;5136043;27;20300;-58
2023/07/05 11:17:29;;;;;;;20.42;18.63;;;;;;;-141.02;82.69;72340.16;5135804;27;20363;-61
2023/07/05 11:19:56;;;;;;;21.75;19.75;;;;;;;-141.02;80.08;69366.97;5136065;27;20208;-69
2023/07/05 11:22:39;;;;;;;21.15;19.25;;;;;;;-141.02;83.19;68624.09;5135987;27;20195;-66
2023/07/05 11:25:11;;;;;;;23.00;21.00;;;;;;;-141.02;82.22;66396.38;5135916;27;20235;-70
2023/07/05 11:27:55;;;;;;;20.67;18.80;;;;;;;-141.02;84.83;66148.94;5135641;27;20798;-61
2023/07/05 11:30:45;;;;;;;20.95;19.15;;;;;;;-141.02;85.09;66148.94;5135528;27;20265;-70
2023/07/05 11:33:22;;;;;;;20.58;18.77;;;;;;;-141.02;86.33;66148.94;5135794;27;20193;-65
2023/07/05 11:35:52;;;;;;;20.38;18.58;;;;;;;-141.02;85.91;65901.53;5135327;27;20586;-69
2023/07/05 11:39:05;;;;;;;20.58;18.77;;;;;;;-141.02;85.09;65159.41;5135691;27;20287;-58
2023/07/05 11:41:39;;;;;;;20.58;18.73;;;;;;;-141.02;84.89;66148.94;5135699;27;20216;-68
2023/07/05 11:44:24;;;;;;;19.90;18.17;;;;;;;-141.02;87.55;66148.94;5135332;27;20181;-64
2023/07/05 11:46:52;;;;;;;19.77;17.98;;;;;;;-141.02;86.29;65406.75;5135601;27;20192;-68
2023/07/05 11:49:34;;;;;;;19.77;18.08;;;;;;;-141.02;87.48;65159.41;5135411;27;20188;-69
2023/07/05 11:52:17;;;;;;;19.73;18.02;;;;;;;-141.02;87.78;63675.59;5135516;27;20268;-67
2023/07/05 11:54:50;;;;;;;20.35;18.65;;;;;;;-141.02;91.08;63181.16;5135342;27;20216;-69
2023/07/05 11:57:18;;;;;;;19.23;17.63;;;;;;;-141.02;91.59;61945.31;5135425;27;20207;-67
2023/07/05 11:59:55;;;;;;;18.40;16.90;;;;;;;-141.02;95.09;62192.44;5134884;27;20236;-61
2023/07/05 12:02:54;;;;;;;18.15;16.75;;;;;;;-141.02;96.92;61698.22;5135115;27;20207;-64
2023/07/05 12:05:26;;;;;;;18.35;16.95;;;;;;;-141.02;98.09;60957.00;5134915;27;20195;-61
2023/07/05 12:07:58;;;;;;;17.73;16.42;;;;;;;-141.02;97.94;59968.94;5134822;27;20189;-68
2023/07/05 12:10:29;;;;;;;17.58;16.27;;;;;;;-141.02;99.45;59968.94;5135143;27;20245;-67
2023/07/05 12:12:56;;;;;;;17.08;15.88;;;;;;;-141.02;100.00;59721.97;5134818;27;20189;-67
2023/07/05 12:15:23;;;;;;;17.30;16.10;;;;;;;-141.02;100.00;59228.09;5134595;27;20224;-65
2023/07/05 12:17:50;;;;;;;16.55;15.45;;;;;;;-141.02;100.00;59228.09;5134577;27;20283;-66
2023/07/05 12:20:28;;;;;;;15.45;14.55;;;;;;;-141.02;100.00;60957.00;5134883;27;20231;-60